This is the latest recevied weather packets stored in our database for station/object DG4MND-4. If no packets are shown the sender has not sent any weather packets the latest 10 day(s).
| Time | Temp. | Humidity | Pressure | Rain* | Wind** | Luminosity | Snow |
|---|---|---|---|---|---|---|---|
| 1777607466 | 0.56° C | 73% | 1024.5 hPa | 0 mm | - | - | - |
| 1777606259 | 1.11° C | 71% | 1024.4 hPa | 0 mm | - | - | - |
| 1777605652 | 1.11° C | 69% | 1024.4 hPa | 0 mm | - | - | - |
| 1777605049 | 2.22° C | 65% | 1024.4 hPa | 0 mm | - | - | - |
| 1777604446 | 2.78° C | 63% | 1024.5 hPa | 0 mm | - | - | - |
| 1777603842 | 3.33° C | 60% | 1024.3 hPa | 0 mm | - | - | - |
| 1777603242 | 3.33° C | 58% | 1024.4 hPa | 0 mm | - | - | - |
| 1777602635 | 3.89° C | 56% | 1024.2 hPa | 0 mm | - | - | - |
| 1777602035 | 3.89° C | 55% | 1024.3 hPa | 0 mm | - | - | - |
| 1777601428 | 4.44° C | 53% | 1024.2 hPa | 0 mm | - | - | - |
| 1777600825 | 5° C | 52% | 1024.4 hPa | 0 mm | - | - | - |
| 1777600225 | 4.44° C | 52% | 1024.4 hPa | 0 mm | - | - | - |
| 1777599618 | 3.89° C | 55% | 1024.5 hPa | 0 mm | - | - | - |
| 1777599079 | 4.44° C | 54% | 1024.6 hPa | 0 mm | - | - | - |
| 1777598472 | 4.44° C | 52% | 1024.7 hPa | 0 mm | - | - | - |
| 1777597868 | 5° C | 52% | 1024.7 hPa | 0 mm | - | - | - |
| 1777597265 | 4.44° C | 52% | 1024.6 hPa | 0 mm | - | - | - |
| 1777596661 | 4.44° C | 52% | 1024.5 hPa | 0 mm | - | - | - |
| 1777596061 | 4.44° C | 54% | 1024.6 hPa | 0 mm | - | - | - |
| 1777595455 | 4.44° C | 53% | 1024.6 hPa | 0 mm | - | - | - |
| 1777594859 | 4.44° C | 52% | 1024.7 hPa | 0 mm | - | - | - |
| 1777594248 | 5° C | 51% | 1024.7 hPa | 0 mm | - | - | - |
| 1777593644 | 5° C | 50% | 1024.5 hPa | 0 mm | - | - | - |
| 1777593044 | 5.56° C | 48% | 1024.6 hPa | 0 mm | - | - | - |
| 1777592440 | 6.11° C | 47% | 1024.6 hPa | 0 mm | - | - | - |
* Rain latest hour (hover to see other rain measurements)
** Current wind speed in m/s (hover to see current wind gust speed)